createdAt,value
2023-04-26T04:55:14.373Z,5.30
2023-04-26T05:00:18.813Z,5.40
2023-04-26T05:05:22.154Z,5.60
2023-04-26T05:10:27.184Z,6.20
2023-04-26T05:15:31.050Z,6.60
2023-04-26T05:20:34.706Z,6.50
2023-04-26T05:25:40.393Z,6.30
2023-04-26T05:30:44.527Z,6.30
2023-04-26T05:35:47.987Z,6.40
2023-04-26T05:40:52.757Z,6.40
2023-04-26T05:45:58.172Z,6.40
2023-04-26T05:51:01.698Z,6.30
2023-04-26T05:56:07.440Z,6.30
2023-04-26T06:01:12.391Z,6.40
2023-04-26T06:06:16.469Z,6.40
2023-04-26T06:11:21.520Z,6.60
2023-04-26T06:16:25.283Z,6.60
2023-04-26T06:21:28.807Z,6.60
2023-04-26T06:26:33.646Z,6.70
2023-04-26T06:31:37.299Z,6.60
2023-04-26T06:36:41.371Z,6.70
2023-04-26T06:41:46.631Z,6.90
2023-04-26T06:46:50.602Z,7.10
2023-04-26T06:51:54.412Z,7.20
2023-04-26T06:57:01.225Z,7.30
2023-04-26T07:02:05.392Z,7.40
2023-04-26T07:07:10.463Z,7.30
2023-04-26T07:12:16.560Z,7.20
2023-04-26T07:17:21.380Z,7.30
2023-04-26T07:22:25.350Z,7.40
2023-04-26T07:27:32.044Z,7.50
2023-04-26T07:32:36.506Z,7.50
2023-04-26T07:37:40.404Z,7.50
2023-04-26T07:42:45.342Z,7.50
2023-04-26T07:47:48.888Z,7.50
2023-04-26T07:52:52.642Z,7.80
2023-04-26T07:57:57.710Z,8.00
2023-04-26T08:03:03.592Z,8.20
2023-04-26T08:08:07.383Z,8.30
2023-04-26T08:13:12.178Z,8.50
2023-04-26T08:18:15.612Z,8.50
2023-04-26T08:23:19.657Z,8.80
2023-04-26T08:28:24.438Z,8.80
2023-04-26T08:33:27.897Z,8.60
2023-04-26T08:38:32.360Z,8.70
2023-04-26T08:43:38.753Z,8.80
2023-04-26T08:48:42.215Z,8.80
2023-04-26T08:53:46.534Z,8.70
2023-04-26T08:58:52.053Z,8.70
2023-04-26T09:03:57.252Z,8.90
2023-04-26T09:09:04.945Z,9.20
2023-04-26T09:14:09.795Z,9.30
2023-04-26T09:19:13.248Z,9.40
2023-04-26T09:24:17.156Z,9.40
2023-04-26T09:29:22.083Z,9.50
2023-04-26T09:34:25.521Z,9.40
2023-04-26T09:39:33.896Z,9.30
2023-04-26T09:44:39.258Z,9.20
2023-04-26T09:49:48.819Z,9.20
2023-04-26T09:54:54.584Z,9.20
2023-04-26T10:00:00.927Z,9.30
2023-04-26T10:05:07.245Z,9.40
2023-04-26T10:10:12.877Z,9.30
2023-04-26T10:15:19.249Z,9.40
2023-04-26T10:20:24.352Z,9.60
2023-04-26T10:25:36.627Z,9.50
2023-04-26T10:30:56.644Z,9.70
2023-04-26T10:36:09.957Z,9.90
2023-04-26T10:41:33.207Z,10.30
2023-04-26T10:46:40.594Z,10.20
2023-04-26T10:52:12.626Z,9.90
2023-04-26T10:57:16.982Z,9.60
2023-04-26T11:02:58.248Z,9.50
2023-04-26T11:08:09.452Z,9.80
2023-04-26T11:13:13.530Z,10.10
2023-04-26T11:18:21.077Z,10.30
2023-04-26T11:23:25.520Z,10.20
2023-04-26T11:28:29.053Z,9.90
2023-04-26T11:33:34.254Z,9.90
2023-04-26T11:38:39.439Z,10.10
2023-04-26T11:43:43.135Z,10.20
2023-04-26T11:48:48.557Z,10.40
2023-04-26T11:53:52.800Z,10.50
2023-04-26T11:58:58.430Z,10.40
2023-04-26T12:04:03.402Z,10.20
2023-04-26T12:09:08.261Z,10.70
2023-04-26T12:14:11.958Z,11.00
2023-04-26T12:19:17.279Z,10.90
2023-04-26T12:24:24.838Z,10.80
2023-04-26T12:29:30.606Z,11.00
2023-04-26T12:34:35.827Z,11.30
2023-04-26T12:39:39.230Z,11.40
2023-04-26T12:44:42.695Z,11.50
2023-04-26T12:49:48.122Z,11.60
2023-04-26T12:54:51.906Z,11.30
2023-04-26T12:59:57.185Z,11.20
2023-04-26T13:05:04.780Z,11.70
2023-04-26T13:10:12.842Z,12.10
2023-04-26T13:15:17.798Z,12.10
2023-04-26T13:20:25.489Z,12.10
2023-04-26T13:25:29.691Z,12.00
2023-04-26T13:30:33.163Z,12.20
2023-04-26T13:35:38.197Z,11.80
2023-04-26T13:40:41.857Z,11.40
2023-04-26T13:45:45.247Z,11.20
2023-04-26T13:50:50.016Z,11.20
2023-04-26T13:55:53.515Z,11.00
2023-04-26T14:00:58.544Z,11.30
2023-04-26T14:06:03.937Z,12.10
2023-04-26T14:11:07.966Z,12.70
2023-04-26T14:16:11.727Z,13.00
2023-04-26T14:21:16.870Z,12.40
2023-04-26T14:26:20.491Z,13.00
2023-04-26T14:31:26.084Z,14.10
2023-04-26T14:36:32.137Z,16.10
2023-04-26T14:41:35.506Z,19.70
2023-04-26T14:46:42.455Z,17.50
2023-04-26T14:51:48.027Z,15.20
2023-04-26T14:56:51.943Z,13.70
2023-04-26T15:01:55.710Z,12.80
2023-04-26T15:07:00.888Z,14.50
2023-04-26T15:12:04.999Z,17.80
2023-04-26T15:17:08.672Z,18.50
2023-04-26T15:22:13.507Z,15.90
2023-04-26T15:27:17.544Z,14.30
2023-04-26T15:32:20.979Z,13.20
2023-04-26T15:37:25.754Z,12.60
2023-04-26T15:42:29.180Z,13.80
2023-04-26T15:47:32.685Z,15.00
2023-04-26T15:52:39.419Z,17.80
2023-04-26T15:57:43.539Z,20.60
2023-04-26T16:02:47.333Z,21.10
2023-04-26T16:07:52.286Z,18.30
2023-04-26T16:12:55.694Z,16.70
2023-04-26T16:17:59.179Z,15.20
2023-04-26T16:23:04.053Z,13.90
2023-04-26T16:28:10.023Z,12.90
2023-04-26T16:33:14.390Z,12.20
2023-04-26T16:38:19.566Z,11.80
2023-04-26T16:43:23.011Z,13.20
2023-04-26T16:48:26.545Z,14.00
2023-04-26T16:53:31.868Z,15.10
2023-04-26T16:58:35.536Z,15.10
2023-04-26T17:03:39.455Z,13.90
2023-04-26T17:08:44.931Z,13.00
2023-04-26T17:13:48.647Z,12.70
2023-04-26T17:18:52.580Z,12.30
2023-04-26T17:23:57.594Z,12.00
2023-04-26T17:29:01.081Z,11.70
2023-04-26T17:34:05.133Z,11.50
2023-04-26T17:39:10.346Z,11.00
2023-04-26T17:44:13.869Z,10.40
2023-04-26T17:49:17.580Z,10.00
2023-04-26T17:54:22.658Z,10.10
2023-04-26T17:59:26.054Z,10.10
2023-04-26T18:04:30.677Z,10.00
2023-04-26T18:09:35.628Z,10.00
2023-04-26T18:14:44.697Z,10.00
2023-04-26T18:19:48.429Z,9.90
2023-04-26T18:24:53.269Z,9.70
2023-04-26T18:29:56.668Z,9.60
2023-04-26T18:35:00.757Z,9.50
2023-04-26T18:40:06.391Z,9.60
2023-04-26T18:45:10.935Z,9.60
2023-04-26T18:50:14.803Z,9.50
2023-04-26T18:55:19.892Z,9.60
2023-04-26T19:00:23.766Z,9.70
2023-04-26T19:05:27.459Z,9.40
2023-04-26T19:10:32.948Z,9.00
2023-04-26T19:15:36.594Z,8.90
2023-04-26T19:20:40.741Z,8.80
2023-04-26T19:25:46.060Z,8.50
2023-04-26T19:30:49.518Z,8.50
2023-04-26T19:35:53.148Z,8.50
2023-04-26T19:40:58.191Z,8.50
2023-04-26T19:46:01.675Z,8.60
2023-04-26T19:51:05.377Z,8.30
2023-04-26T19:56:12.046Z,8.20
2023-04-26T20:01:15.978Z,8.30
2023-04-26T20:06:19.831Z,8.30
2023-04-26T20:11:24.683Z,8.40
2023-04-26T20:16:28.669Z,8.60
2023-04-26T20:21:32.583Z,8.40
2023-04-26T20:26:37.403Z,8.50
2023-04-26T20:31:41.159Z,8.80
2023-04-26T20:36:44.898Z,8.60
2023-04-26T20:41:49.705Z,8.70
2023-04-26T20:46:53.209Z,8.80
2023-04-26T20:51:56.951Z,9.00
2023-04-26T20:57:04.168Z,8.90
2023-04-26T21:02:08.914Z,9.00
2023-04-26T21:07:13.049Z,8.90
2023-04-26T21:12:18.109Z,8.80
2023-04-26T21:17:21.880Z,8.70
2023-04-26T21:22:25.618Z,8.50
2023-04-26T21:27:31.701Z,8.10
2023-04-26T21:32:35.150Z,8.10
2023-04-26T21:37:38.693Z,8.10
2023-04-26T21:42:46.661Z,8.20
2023-04-26T21:47:55.252Z,8.40
2023-04-26T21:52:58.675Z,8.00
2023-04-26T21:58:03.422Z,8.00
2023-04-26T22:03:07.094Z,7.70
2023-04-26T22:08:10.738Z,7.70
2023-04-26T22:13:15.634Z,7.50
2023-04-26T22:18:19.337Z,7.50
2023-04-26T22:23:22.761Z,7.50
2023-04-26T22:28:28.069Z,7.60
